Ab Ask, Iran

9:22 PM +0330 on January 17, 2018 (GMT +0330)
Mehrabad International | | Change Station

Elev 3907 ft 35.68 °N, 51.35 °E | Updated 22 minutes ago

Clear
Clear
41 °F
Feels Like 38 °F
N
5
Wind Variable Wind from West

Today
High -- | Low -- °F
--% Chance of Precip.
Yesterday
High -- | Low -- °F
Precip. -- in
Pressure 30.01 in
Visibility 4.3 miles
Clouds Few 4000 ft
Scattered Clouds 20000 ft
Windchill 38 °F
Dew Point 23 °F
Humidity 49%
Rainfall 0.00 in
Snow Depth Not available.
7:10 AM 5:12 PM
New Moon, 0% visible
METAR OIII 171730Z 27004KT 7000 FEW040 SCT200 05/M05 Q1016 A3000 NOSIG
Pressure 30.01 in
Visibility 4.3 miles
Clouds Few 4000 ft
Scattered Clouds 20000 ft
Windchill 38 °F
Dew Point 23 °F
Humidity 49%
Rainfall 0.00 in
Snow Depth Not available.
7:10 AM 5:12 PM
New Moon, 0% visible
METAR OIII 171730Z 27004KT 7000 FEW040 SCT200 05/M05 Q1016 A3000 NOSIG

Get Severe Weather Alerts

Thanks for signing up!

Be on the lookout for a verification email in your inbox.

You'll start receiving the daily forecast at 6 AM.

×

10-Day Weather Forecast

No radar image for this location.
×

Almanac

Astronomy

Jan. 17, 2018 Rise Set
Actual Time
Civil Twilight
Nautical Twilight
Astronomical Twilight
Moon
Length of Visible Light
Length of Day
Tomorrow will be .
, % of the Moon is Illuminated

Today's Extremes

Country Highs Country Lows

Community

WunderPhotos

Category 6

Welcome to Category 6. This is the collective home for Weather Underground's featured writeups by Dr. Jeff Masters (right), Bob Henson (left), Chris Burt, and other regular contributors.

Nearby

Air Quality

  Air Quality AQ Index Pollutant
Not available.

Snow Depth

Station Depth Elevation

Earthquake Activity

City Distance Mag. Time & Date
Minimum magnitude displayed is 2.5.

Coastal Water Temperatures

Place Temperature

Stations

Nearby Weather Stations

Station Location Temp. Windchill Dew Point Humidity Wind Precip. Elev Updated Type